Time,TemperatureF,DewpointF,PressureIn,WindDirection,WindDirectionDegrees,WindSpeedMPH,WindSpeedGustMPH,Humidity,HourlyPrecipIn,Conditions,Clouds,dailyrainin,SoftwareType,DateUTC
2013-05-22 00:03:00,70.7,67.0,29.95,South,184,0.0,-999.0,89,-99.99,,,0.00,weatherlink.com 1.10,2013-05-22 05:03:00,
2013-05-22 00:18:00,70.2,67.0,29.95,South,184,0.0,-999.0,90,-99.99,,,0.00,weatherlink.com 1.10,2013-05-22 05:18:00,
2013-05-22 00:33:00,70.2,67.0,29.95,South,184,0.0,-999.0,90,-99.99,,,0.00,weatherlink.com 1.10,2013-05-22 05:33:00,
2013-05-22 00:48:00,69.8,67.0,29.95,South,184,0.0,-999.0,90,-99.99,,,0.00,weatherlink.com 1.10,2013-05-22 05:48:00,
2013-05-22 01:03:00,69.2,67.0,29.94,South,184,0.0,-999.0,92,-99.99,,,0.00,weatherlink.com 1.10,2013-05-22 06:03:00,
2013-05-22 01:18:00,69.3,67.0,29.95,South,184,0.0,-999.0,92,-99.99,,,0.00,weatherlink.com 1.10,2013-05-22 06:18:00,
2013-05-22 01:33:00,69.6,67.0,29.95,South,184,0.0,-999.0,91,-99.99,,,0.00,weatherlink.com 1.10,2013-05-22 06:33:00,
2013-05-22 01:48:00,69.5,67.0,29.95,South,184,0.0,-999.0,91,-99.99,,,0.00,weatherlink.com 1.10,2013-05-22 06:48:00,
2013-05-22 02:03:00,69.4,67.0,29.95,South,184,0.0,-999.0,91,-99.99,,,0.00,weatherlink.com 1.10,2013-05-22 07:03:00,
2013-05-22 02:18:00,68.9,67.0,29.94,South,184,0.0,-999.0,92,-99.99,,,0.00,weatherlink.com 1.10,2013-05-22 07:18:00,
2013-05-22 02:33:00,68.1,66.0,29.94,South,184,0.0,-999.0,92,-99.99,,,0.00,weatherlink.com 1.10,2013-05-22 07:33:00,
2013-05-22 02:48:00,67.9,66.0,29.94,South,184,0.0,-999.0,94,-99.99,,,0.00,weatherlink.com 1.10,2013-05-22 07:48:00,
2013-05-22 03:03:00,68.0,66.0,29.95,South,184,0.0,-999.0,94,-99.99,,,0.00,weatherlink.com 1.10,2013-05-22 08:03:00,
2013-05-22 03:18:00,69.4,67.0,29.96,SW,223,3.0,-999.0,93,-99.99,,,0.00,weatherlink.com 1.10,2013-05-22 08:18:00,
2013-05-22 03:33:00,70.2,67.0,29.96,SW,223,0.0,-999.0,90,-99.99,,,0.00,weatherlink.com 1.10,2013-05-22 08:33:00,
2013-05-22 03:48:00,70.4,67.0,29.97,WSW,246,4.0,-999.0,89,-99.99,,,0.00,weatherlink.com 1.10,2013-05-22 08:48:00,
2013-05-22 04:03:00,70.4,67.0,29.97,WSW,242,4.0,-999.0,89,-99.99,,,0.00,weatherlink.com 1.10,2013-05-22 09:03:00,
2013-05-22 04:18:00,70.9,67.0,29.97,West,259,7.0,-999.0,88,-99.99,,,0.00,weatherlink.com 1.10,2013-05-22 09:18:00,
2013-05-22 04:33:00,71.1,67.0,29.98,West,273,8.0,-999.0,88,-99.99,,,0.00,weatherlink.com 1.10,2013-05-22 09:33:00,
2013-05-22 04:48:00,70.7,67.0,29.97,WSW,257,4.0,-999.0,88,-99.99,,,0.00,weatherlink.com 1.10,2013-05-22 09:48:00,
2013-05-22 05:03:00,70.4,67.0,29.97,West,278,2.0,-999.0,89,-99.99,,,0.00,weatherlink.com 1.10,2013-05-22 10:03:00,
2013-05-22 05:18:00,70.0,67.0,29.97,WNW,296,1.0,-999.0,89,-99.99,,,0.00,weatherlink.com 1.10,2013-05-22 10:18:00,
2013-05-22 05:33:00,69.4,66.0,29.96,WNW,285,0.0,-999.0,90,-99.99,,,0.00,weatherlink.com 1.10,2013-05-22 10:33:00,
2013-05-22 05:48:00,68.8,66.0,29.96,WNW,285,2.0,-999.0,89,-99.99,,,0.00,weatherlink.com 1.10,2013-05-22 10:48:00,
2013-05-22 06:03:00,68.6,65.0,29.96,WNW,292,3.0,-999.0,89,-99.99,,,0.00,weatherlink.com 1.10,2013-05-22 11:03:00,
2013-05-22 06:18:00,68.5,65.0,29.96,WNW,297,0.0,-999.0,88,-99.99,,,0.00,weatherlink.com 1.10,2013-05-22 11:18:00,
2013-05-22 06:33:00,68.5,65.0,29.95,WNW,297,0.0,-999.0,88,-99.99,,,0.00,weatherlink.com 1.10,2013-05-22 11:33:00,
2013-05-22 06:48:00,69.0,66.0,29.95,WNW,289,0.0,-999.0,89,-99.99,,,0.00,weatherlink.com 1.10,2013-05-22 11:48:00,
2013-05-22 07:03:00,69.1,66.0,29.95,WNW,289,0.0,-999.0,89,-99.99,,,0.00,weatherlink.com 1.10,2013-05-22 12:03:00,
2013-05-22 07:18:00,69.2,66.0,29.94,WNW,286,0.0,-999.0,90,-99.99,,,0.00,weatherlink.com 1.10,2013-05-22 12:18:00,
2013-05-22 07:33:00,69.6,67.0,29.94,SW,214,0.0,-999.0,92,-99.99,,,0.00,weatherlink.com 1.10,2013-05-22 12:33:00,
2013-05-22 07:48:00,70.1,68.0,29.94,SSE,154,0.0,-999.0,92,-99.99,,,0.00,weatherlink.com 1.10,2013-05-22 12:48:00,
2013-05-22 08:03:00,70.8,68.0,29.94,ESE,105,0.0,-999.0,90,-99.99,,,0.00,weatherlink.com 1.10,2013-05-22 13:03:00,
2013-05-22 08:18:00,71.6,68.0,29.94,SSE,149,0.0,-999.0,88,-99.99,,,0.00,weatherlink.com 1.10,2013-05-22 13:18:00,
2013-05-22 08:33:00,71.8,68.0,29.94,ESE,109,0.0,-999.0,88,-99.99,,,0.00,weatherlink.com 1.10,2013-05-22 13:33:00,
2013-05-22 08:48:00,72.1,68.0,29.95,SSE,149,0.0,-999.0,87,-99.99,,,0.00,weatherlink.com 1.10,2013-05-22 13:48:00,
2013-05-22 09:03:00,73.5,68.0,29.95,SE,133,1.0,-999.0,83,-99.99,,,0.00,weatherlink.com 1.10,2013-05-22 14:03:00,
2013-05-22 09:18:00,74.6,68.0,29.95,SW,216,5.0,-999.0,81,-99.99,,,0.00,weatherlink.com 1.10,2013-05-22 14:18:00,
2013-05-22 09:33:00,74.6,68.0,29.95,WSW,237,1.0,-999.0,80,-99.99,,,0.00,weatherlink.com 1.10,2013-05-22 14:33:00,
2013-05-22 09:48:00,74.2,68.0,29.96,SSE,153,0.0,-999.0,81,-99.99,,,0.00,weatherlink.com 1.10,2013-05-22 14:48:00,
2013-05-22 10:03:00,74.6,68.0,29.96,SW,221,1.0,-999.0,81,-99.99,,,0.00,weatherlink.com 1.10,2013-05-22 15:03:00,
2013-05-22 10:18:00,75.7,68.0,29.98,SW,227,8.0,-999.0,78,-99.99,,,0.00,weatherlink.com 1.10,2013-05-22 15:18:00,
2013-05-22 10:33:00,75.6,68.0,29.98,SSW,212,5.0,-999.0,78,-99.99,,,0.00,weatherlink.com 1.10,2013-05-22 15:33:00,
2013-05-22 10:48:00,75.8,68.0,29.99,SSW,202,10.0,-999.0,77,-99.99,,,0.00,weatherlink.com 1.10,2013-05-22 15:48:00,
2013-05-22 11:03:00,76.7,68.0,29.99,SW,224,8.0,-999.0,75,-99.99,,,0.00,weatherlink.com 1.10,2013-05-22 16:03:00,
2013-05-22 11:18:00,77.8,68.0,29.98,SSW,213,11.0,-999.0,72,-99.99,,,0.00,weatherlink.com 1.10,2013-05-22 16:18:00,
2013-05-22 11:33:00,78.3,68.0,29.98,South,188,3.0,-999.0,70,-99.99,,,0.00,weatherlink.com 1.10,2013-05-22 16:33:00,
2013-05-22 11:48:00,78.4,67.0,29.98,SSW,213,7.0,-999.0,69,-99.99,,,0.00,weatherlink.com 1.10,2013-05-22 16:48:00,
2013-05-22 12:03:00,79.0,67.0,29.97,SW,217,3.0,-999.0,66,-99.99,,,0.00,weatherlink.com 1.10,2013-05-22 17:03:00,
2013-05-22 12:18:00,78.2,67.0,29.97,West,275,8.0,-999.0,68,-99.99,,,0.00,weatherlink.com 1.10,2013-05-22 17:18:00,
2013-05-22 12:33:00,78.0,68.0,29.97,South,178,4.0,-999.0,71,-99.99,,,0.00,weatherlink.com 1.10,2013-05-22 17:33:00,
2013-05-22 12:48:00,78.4,67.0,29.97,SW,214,5.0,-999.0,69,-99.99,,,0.00,weatherlink.com 1.10,2013-05-22 17:48:00,
2013-05-22 13:03:00,77.6,67.0,29.96,WSW,252,4.0,-999.0,69,-99.99,,,0.00,weatherlink.com 1.10,2013-05-22 18:03:00,
2013-05-22 13:18:00,78.9,68.0,29.95,SSW,200,5.0,-999.0,69,-99.99,,,0.00,weatherlink.com 1.10,2013-05-22 18:18:00,
2013-05-22 13:33:00,79.2,69.0,29.95,SW,219,6.0,-999.0,70,-99.99,,,0.00,weatherlink.com 1.10,2013-05-22 18:33:00,
2013-05-22 13:48:00,78.4,68.0,29.95,SSW,209,5.0,-999.0,70,-99.99,,,0.00,weatherlink.com 1.10,2013-05-22 18:48:00,
2013-05-22 14:04:00,79.5,68.0,29.95,WSW,252,8.0,-999.0,69,-99.99,,,0.00,weatherlink.com 1.10,2013-05-22 19:04:00,
2013-05-22 14:19:00,80.2,69.0,29.93,WSW,239,6.0,-999.0,68,-99.99,,,0.00,weatherlink.com 1.10,2013-05-22 19:19:00,
2013-05-22 14:34:00,80.3,68.0,29.94,WSW,257,10.0,-999.0,67,-99.99,,,0.00,weatherlink.com 1.10,2013-05-22 19:34:00,
2013-05-22 14:49:00,80.3,67.0,29.93,SW,227,7.0,-999.0,64,-99.99,,,0.00,weatherlink.com 1.10,2013-05-22 19:49:00,
2013-05-22 15:04:00,79.0,68.0,29.92,West,264,6.0,-999.0,68,-99.99,,,0.00,weatherlink.com 1.10,2013-05-22 20:04:00,
2013-05-22 15:19:00,69.1,63.0,29.95,West,272,16.0,-999.0,82,-99.99,,,0.00,weatherlink.com 1.10,2013-05-22 20:19:00,
2013-05-22 15:34:00,68.8,66.0,29.93,WSW,246,1.0,-999.0,92,-99.99,,,0.00,weatherlink.com 1.10,2013-05-22 20:34:00,
2013-05-22 15:49:00,73.2,69.0,29.91,SW,232,3.0,-999.0,87,-99.99,,,0.00,weatherlink.com 1.10,2013-05-22 20:49:00,
2013-05-22 16:04:00,74.4,68.0,29.91,WSW,237,2.0,-999.0,81,-99.99,,,0.00,weatherlink.com 1.10,2013-05-22 21:04:00,
2013-05-22 16:19:00,74.5,69.0,29.90,SW,235,0.0,-999.0,83,-99.99,,,0.00,weatherlink.com 1.10,2013-05-22 21:19:00,
2013-05-22 16:34:00,75.0,70.0,29.90,SW,229,2.0,-999.0,83,-99.99,,,0.00,weatherlink.com 1.10,2013-05-22 21:34:00,
2013-05-22 16:49:00,76.2,70.0,29.91,SW,233,9.0,-999.0,81,-99.99,,,0.00,weatherlink.com 1.10,2013-05-22 21:49:00,
2013-05-22 17:04:00,76.6,69.0,29.91,West,274,9.0,-999.0,77,-99.99,,,0.00,weatherlink.com 1.10,2013-05-22 22:04:00,
2013-05-22 17:19:00,76.5,66.0,29.91,WSW,250,4.0,-999.0,70,-99.99,,,0.00,weatherlink.com 1.10,2013-05-22 22:19:00,
2013-05-22 17:34:00,75.9,65.0,29.91,West,273,7.0,-999.0,69,-99.99,,,0.00,weatherlink.com 1.10,2013-05-22 22:34:00,
2013-05-22 17:49:00,75.8,66.0,29.91,West,261,7.0,-999.0,71,-99.99,,,0.00,weatherlink.com 1.10,2013-05-22 22:49:00,
2013-05-22 18:04:00,76.6,66.0,29.91,West,265,4.0,-999.0,70,-99.99,,,0.00,weatherlink.com 1.10,2013-05-22 23:04:00,
2013-05-22 18:19:00,76.9,67.0,29.90,West,271,5.0,-999.0,71,-99.99,,,0.00,weatherlink.com 1.10,2013-05-22 23:19:00,
2013-05-22 18:34:00,76.8,67.0,29.90,West,263,5.0,-999.0,72,-99.99,,,0.00,weatherlink.com 1.10,2013-05-22 23:34:00,
2013-05-22 18:49:00,76.9,68.0,29.91,SW,236,0.0,-999.0,73,-99.99,,,0.00,weatherlink.com 1.10,2013-05-22 23:49:00,
2013-05-22 19:04:00,76.7,67.0,29.91,WNW,282,5.0,-999.0,72,-99.99,,,0.00,weatherlink.com 1.10,2013-05-23 00:04:00,
2013-05-22 19:19:00,75.4,67.0,29.92,WSW,254,0.0,-999.0,74,-99.99,,,0.00,weatherlink.com 1.10,2013-05-23 00:19:00,
2013-05-22 19:34:00,74.5,66.0,29.92,SW,219,1.0,-999.0,75,-99.99,,,0.00,weatherlink.com 1.10,2013-05-23 00:34:00,
2013-05-22 19:49:00,74.1,66.0,29.93,SW,221,0.0,-999.0,77,-99.99,,,0.00,weatherlink.com 1.10,2013-05-23 00:49:00,
2013-05-22 20:04:00,73.7,66.0,29.93,SW,221,0.0,-999.0,78,-99.99,,,0.00,weatherlink.com 1.10,2013-05-23 01:04:00,
2013-05-22 20:19:00,73.1,67.0,29.93,SW,221,0.0,-999.0,80,-99.99,,,0.00,weatherlink.com 1.10,2013-05-23 01:19:00,
2013-05-22 20:34:00,72.2,66.0,29.93,SW,221,0.0,-999.0,81,-99.99,,,0.00,weatherlink.com 1.10,2013-05-23 01:34:00,
2013-05-22 20:49:00,71.9,66.0,29.93,SW,221,0.0,-999.0,81,-99.99,,,0.00,weatherlink.com 1.10,2013-05-23 01:49:00,
2013-05-22 21:04:00,71.3,66.0,29.94,SW,221,0.0,-999.0,84,-99.99,,,0.00,weatherlink.com 1.10,2013-05-23 02:04:00,
2013-05-22 21:19:00,70.0,66.0,29.94,SW,221,0.0,-999.0,86,-99.99,,,0.00,weatherlink.com 1.10,2013-05-23 02:19:00,
2013-05-22 21:34:00,69.4,66.0,29.95,SW,221,0.0,-999.0,88,-99.99,,,0.00,weatherlink.com 1.10,2013-05-23 02:34:00,
2013-05-22 21:49:00,69.1,66.0,29.95,SW,221,0.0,-999.0,90,-99.99,,,0.00,weatherlink.com 1.10,2013-05-23 02:49:00,
2013-05-22 22:04:00,68.8,66.0,29.96,SW,221,0.0,-999.0,91,-99.99,,,0.00,weatherlink.com 1.10,2013-05-23 03:04:00,
2013-05-22 22:19:00,69.7,66.0,29.96,SW,221,0.0,-999.0,87,-99.99,,,0.00,weatherlink.com 1.10,2013-05-23 03:19:00,
2013-05-22 22:34:00,69.8,66.0,29.96,WSW,254,3.0,-999.0,86,-99.99,,,0.00,weatherlink.com 1.10,2013-05-23 03:34:00,
2013-05-22 22:49:00,70.0,66.0,29.96,WSW,255,0.0,-999.0,86,-99.99,,,0.00,weatherlink.com 1.10,2013-05-23 03:49:00,
2013-05-22 23:04:00,70.2,66.0,29.96,WSW,252,3.0,-999.0,86,-99.99,,,0.00,weatherlink.com 1.10,2013-05-23 04:04:00,